createdAt,value
2023-03-31T00:00:18.976Z,2.05
2023-03-31T00:02:49.089Z,1.83
2023-03-31T00:05:19.303Z,1.90
2023-03-31T00:07:49.208Z,1.92
2023-03-31T00:10:19.458Z,1.42
2023-03-31T00:12:51.953Z,1.95
2023-03-31T00:15:21.943Z,1.70
2023-03-31T00:17:51.891Z,2.45
2023-03-31T00:20:22.934Z,1.60
2023-03-31T00:22:54.694Z,1.83
2023-03-31T00:25:24.637Z,1.52
2023-03-31T00:27:57.113Z,1.70
2023-03-31T00:30:27.122Z,1.70
2023-03-31T00:32:57.087Z,2.17
2023-03-31T00:35:26.988Z,2.45
2023-03-31T00:37:58.203Z,2.03
2023-03-31T00:40:28.162Z,1.90
2023-03-31T00:43:00.818Z,1.80
2023-03-31T00:45:32.179Z,1.67
2023-03-31T00:48:10.344Z,1.85
2023-03-31T00:50:46.126Z,1.73
2023-03-31T00:53:20.716Z,2.13
2023-03-31T00:55:54.354Z,1.77
2023-03-31T00:58:29.352Z,1.98
2023-03-31T01:01:02.369Z,2.20
2023-03-31T01:03:34.541Z,2.10
2023-03-31T01:06:10.522Z,1.65
2023-03-31T01:08:42.849Z,1.65
2023-03-31T01:11:16.549Z,2.00
2023-03-31T01:13:51.911Z,1.88
2023-03-31T01:16:22.188Z,1.88
2023-03-31T01:18:52.640Z,2.22
2023-03-31T01:21:57.192Z,1.90
2023-03-31T01:25:01.804Z,1.73
2023-03-31T01:27:46.992Z,1.67
2023-03-31T01:30:45.341Z,1.45
2023-03-31T01:33:34.622Z,1.85
2023-03-31T01:36:46.785Z,1.83
2023-03-31T01:39:53.094Z,1.65
2023-03-31T01:42:30.522Z,1.60
2023-03-31T01:45:08.998Z,1.95
2023-03-31T01:47:46.185Z,1.75
2023-03-31T01:50:26.162Z,2.00
2023-03-31T01:53:00.974Z,1.80
2023-03-31T01:55:36.506Z,1.98
2023-03-31T01:58:13.782Z,2.08
2023-03-31T02:00:52.103Z,2.25
2023-03-31T02:03:29.470Z,1.90
2023-03-31T02:06:03.014Z,1.90
2023-03-31T02:08:36.872Z,1.50
2023-03-31T02:11:06.997Z,1.65
2023-03-31T02:13:44.648Z,1.45
2023-03-31T02:16:19.794Z,1.50
2023-03-31T02:18:53.067Z,1.50
2023-03-31T02:21:24.442Z,1.42
2023-03-31T02:23:54.861Z,1.08
2023-03-31T02:26:29.677Z,1.20
2023-03-31T02:29:02.153Z,1.23
2023-03-31T02:31:39.824Z,1.45
2023-03-31T02:34:09.754Z,1.30
2023-03-31T02:36:40.078Z,1.67
2023-03-31T02:39:13.518Z,1.50
2023-03-31T02:41:43.675Z,1.33
2023-03-31T02:44:16.209Z,1.70
2023-03-31T02:46:46.510Z,1.40
2023-03-31T02:49:17.312Z,1.20
2023-03-31T02:52:04.160Z,1.83
2023-03-31T02:54:54.058Z,1.58
2023-03-31T02:57:41.184Z,1.23
2023-03-31T03:00:22.526Z,1.40
2023-03-31T03:03:05.000Z,1.88
2023-03-31T03:05:46.005Z,2.03
2023-03-31T03:08:29.602Z,1.88
2023-03-31T03:11:11.295Z,2.13
2023-03-31T03:13:49.278Z,2.22
2023-03-31T03:16:24.760Z,2.20
2023-03-31T03:19:01.303Z,1.75
2023-03-31T03:21:32.225Z,2.30
2023-03-31T03:24:02.564Z,2.30
2023-03-31T03:26:35.408Z,2.08
2023-03-31T03:29:05.364Z,2.10
2023-03-31T03:31:37.862Z,2.15
2023-03-31T03:34:07.801Z,2.47
2023-03-31T03:36:37.657Z,1.95
2023-03-31T03:39:08.671Z,2.28
2023-03-31T03:41:38.770Z,1.80
2023-03-31T03:44:08.762Z,3.00
2023-03-31T03:46:41.567Z,2.40
2023-03-31T03:49:11.602Z,2.65
2023-03-31T03:51:41.435Z,2.45
2023-03-31T03:54:11.265Z,2.50
2023-03-31T03:56:41.839Z,2.53
2023-03-31T03:59:11.927Z,2.90
2023-03-31T04:01:44.424Z,2.60
2023-03-31T04:04:14.457Z,2.50
2023-03-31T04:06:44.312Z,2.88
2023-03-31T04:09:14.167Z,2.33
2023-03-31T04:11:44.396Z,2.40
2023-03-31T04:14:14.245Z,2.22
2023-03-31T04:16:46.869Z,2.70
2023-03-31T04:19:17.773Z,2.60
2023-03-31T04:21:50.829Z,2.75
2023-03-31T04:24:22.092Z,3.38
2023-03-31T04:26:51.986Z,2.95
2023-03-31T04:29:22.767Z,2.47
2023-03-31T04:31:58.893Z,2.72
2023-03-31T04:34:35.447Z,2.80
2023-03-31T04:37:06.452Z,2.80
2023-03-31T04:39:36.386Z,2.63
2023-03-31T04:42:06.518Z,2.63
2023-03-31T04:44:36.439Z,2.88
2023-03-31T04:47:08.844Z,3.00
2023-03-31T04:49:38.848Z,3.55
2023-03-31T04:52:08.746Z,3.08
2023-03-31T04:54:38.628Z,3.50
2023-03-31T04:57:08.579Z,3.03
2023-03-31T04:59:38.517Z,3.05
2023-03-31T05:02:11.109Z,3.50
2023-03-31T05:04:41.364Z,3.42
2023-03-31T05:07:11.242Z,3.03
2023-03-31T05:09:41.066Z,3.33
2023-03-31T05:12:11.106Z,3.20
2023-03-31T05:14:40.984Z,3.45
2023-03-31T05:17:13.408Z,3.85
2023-03-31T05:19:43.310Z,3.50
2023-03-31T05:22:13.291Z,3.83
2023-03-31T05:24:43.154Z,4.03
2023-03-31T05:27:13.458Z,4.30
2023-03-31T05:29:44.062Z,3.47
2023-03-31T05:32:16.860Z,4.57
2023-03-31T05:34:46.739Z,4.93
2023-03-31T05:37:16.601Z,4.97
2023-03-31T05:39:46.455Z,4.75
2023-03-31T05:42:16.368Z,5.13
2023-03-31T05:44:46.203Z,6.28
2023-03-31T05:47:18.646Z,4.60
2023-03-31T05:49:48.767Z,5.80
2023-03-31T05:52:18.665Z,5.75
2023-03-31T05:54:48.508Z,6.35
2023-03-31T05:57:18.583Z,6.35
2023-03-31T05:59:48.504Z,6.03
2023-03-31T06:02:20.991Z,5.93
2023-03-31T06:04:50.886Z,6.25
2023-03-31T06:07:22.338Z,5.70
2023-03-31T06:09:52.454Z,6.32
2023-03-31T06:12:22.296Z,6.70
2023-03-31T06:14:52.208Z,5.93
2023-03-31T06:17:24.743Z,5.75
2023-03-31T06:19:54.630Z,6.53
2023-03-31T06:22:24.500Z,5.78
2023-03-31T06:24:54.377Z,6.05
2023-03-31T06:27:24.282Z,6.40
2023-03-31T06:29:54.118Z,6.25
2023-03-31T06:32:27.182Z,6.38
2023-03-31T06:34:57.021Z,6.53
2023-03-31T06:37:26.937Z,6.05
2023-03-31T06:39:57.114Z,6.75
2023-03-31T06:42:26.982Z,6.60
2023-03-31T06:44:57.701Z,7.40
2023-03-31T06:47:30.242Z,7.20
2023-03-31T06:50:00.419Z,7.53
2023-03-31T06:52:30.289Z,7.20
2023-03-31T06:55:00.692Z,7.70
2023-03-31T06:57:33.430Z,6.95
2023-03-31T07:00:03.870Z,6.75
2023-03-31T07:02:37.399Z,6.72
2023-03-31T07:05:08.127Z,7.15
2023-03-31T07:07:38.184Z,7.57
2023-03-31T07:10:09.428Z,6.30
2023-03-31T07:12:39.323Z,7.15
2023-03-31T07:15:11.010Z,7.43
2023-03-31T07:17:43.612Z,7.35
2023-03-31T07:20:15.461Z,9.82
2023-03-31T07:22:45.799Z,7.45
2023-03-31T07:25:17.929Z,7.72
2023-03-31T07:27:47.941Z,7.05
2023-03-31T07:30:19.485Z,6.40
2023-03-31T07:32:54.741Z,6.05
2023-03-31T07:35:25.741Z,5.90
2023-03-31T07:37:55.609Z,5.63
2023-03-31T07:40:29.490Z,4.78
2023-03-31T07:42:59.631Z,3.38
2023-03-31T07:45:29.707Z,3.42
2023-03-31T07:48:02.543Z,2.88
2023-03-31T07:50:32.780Z,3.08
2023-03-31T07:53:02.662Z,2.60
2023-03-31T07:55:32.590Z,1.98
2023-03-31T07:58:02.700Z,2.40
2023-03-31T08:00:32.638Z,1.90
2023-03-31T08:03:05.102Z,1.90
2023-03-31T08:05:35.046Z,1.42
2023-03-31T08:08:04.982Z,1.52
2023-03-31T08:10:34.889Z,1.23
2023-03-31T08:13:04.730Z,1.52
2023-03-31T08:15:34.601Z,1.50
2023-03-31T08:18:07.714Z,1.40
2023-03-31T08:20:39.483Z,1.17
2023-03-31T08:23:11.622Z,1.20
2023-03-31T08:25:41.864Z,1.27
2023-03-31T08:28:14.217Z,1.00
2023-03-31T08:30:44.803Z,1.40
2023-03-31T08:33:19.113Z,1.25
2023-03-31T08:35:49.119Z,1.00
2023-03-31T08:38:19.054Z,1.38
2023-03-31T08:40:48.975Z,1.17
2023-03-31T08:43:28.040Z,1.05
2023-03-31T08:45:58.049Z,1.40
2023-03-31T08:48:32.431Z,1.10
2023-03-31T08:51:07.762Z,1.23
2023-03-31T08:53:43.893Z,1.33
2023-03-31T08:56:19.738Z,1.10
2023-03-31T08:58:51.548Z,1.13
2023-03-31T09:01:31.277Z,1.55
2023-03-31T09:04:20.718Z,1.92
2023-03-31T09:06:58.537Z,1.20
2023-03-31T09:09:38.825Z,1.38
2023-03-31T09:12:14.529Z,1.10
2023-03-31T09:14:47.008Z,1.30
2023-03-31T09:17:24.055Z,1.38
2023-03-31T09:20:01.486Z,1.52
2023-03-31T09:22:35.175Z,1.52
2023-03-31T09:25:10.158Z,1.30
2023-03-31T09:27:43.098Z,1.25
2023-03-31T09:30:18.714Z,1.10
2023-03-31T09:32:50.397Z,1.33
2023-03-31T09:35:25.592Z,1.67
2023-03-31T09:37:57.321Z,1.10
2023-03-31T09:40:28.832Z,1.10
2023-03-31T09:43:03.369Z,1.10
2023-03-31T09:45:34.157Z,1.38
2023-03-31T09:48:07.211Z,1.40
2023-03-31T09:50:45.010Z,1.30
2023-03-31T09:53:20.850Z,1.50
2023-03-31T09:55:57.075Z,1.30
2023-03-31T09:58:27.854Z,1.60
2023-03-31T10:01:04.049Z,1.33
2023-03-31T10:03:37.345Z,3.53
2023-03-31T10:06:17.354Z,1.25
2023-03-31T10:08:51.959Z,1.48
2023-03-31T10:11:22.097Z,1.23
2023-03-31T10:13:59.073Z,1.75
2023-03-31T10:16:34.542Z,2.05
2023-03-31T10:19:26.601Z,1.65
2023-03-31T10:22:03.764Z,1.67
2023-03-31T10:24:41.610Z,1.55
2023-03-31T10:27:23.182Z,1.58
2023-03-31T10:29:56.132Z,1.60
2023-03-31T10:32:29.308Z,1.77
2023-03-31T10:35:00.607Z,1.67
2023-03-31T10:37:34.275Z,1.80
2023-03-31T10:40:07.454Z,1.33
2023-03-31T10:42:37.761Z,1.25
2023-03-31T10:45:26.240Z,1.38
2023-03-31T10:48:02.434Z,1.40
2023-03-31T10:50:34.538Z,1.45
2023-03-31T10:53:09.902Z,1.90
2023-03-31T10:55:48.966Z,1.90
2023-03-31T10:58:34.646Z,2.00
2023-03-31T11:01:17.604Z,1.48
2023-03-31T11:04:14.910Z,1.50
2023-03-31T11:06:56.748Z,1.38
2023-03-31T11:09:50.696Z,1.10
2023-03-31T11:12:27.601Z,1.30
2023-03-31T11:15:08.489Z,1.48
2023-03-31T11:17:53.716Z,1.30
2023-03-31T11:20:31.067Z,1.30
2023-03-31T11:23:10.582Z,0.70
2023-03-31T11:25:53.030Z,0.73
2023-03-31T11:28:30.566Z,0.70
2023-03-31T11:31:11.464Z,1.15
2023-03-31T11:33:59.858Z,0.80
2023-03-31T11:37:05.129Z,0.82
2023-03-31T11:39:46.446Z,0.80
2023-03-31T11:42:22.655Z,0.52
2023-03-31T11:44:56.315Z,0.40
2023-03-31T11:47:30.666Z,0.57
2023-03-31T11:50:03.266Z,0.82
2023-03-31T11:52:36.777Z,0.35
2023-03-31T11:55:15.565Z,0.30
2023-03-31T11:57:53.294Z,0.47
2023-03-31T12:00:27.121Z,0.70
2023-03-31T12:03:02.526Z,0.50
2023-03-31T12:05:36.524Z,0.40
2023-03-31T12:08:13.841Z,0.70
2023-03-31T12:10:49.465Z,0.50
2023-03-31T12:13:41.961Z,0.40
2023-03-31T12:16:17.118Z,0.30
2023-03-31T12:18:59.733Z,0.35
2023-03-31T12:21:32.177Z,0.40
2023-03-31T12:24:02.071Z,0.32
2023-03-31T12:26:42.405Z,0.70
2023-03-31T12:29:26.039Z,0.40
2023-03-31T12:31:59.935Z,0.43
2023-03-31T12:34:33.041Z,0.70
2023-03-31T12:37:25.213Z,0.73
2023-03-31T12:40:08.158Z,2.60
2023-03-31T12:42:57.109Z,0.50
2023-03-31T12:45:32.047Z,0.60
2023-03-31T12:48:20.923Z,0.80
2023-03-31T12:51:03.611Z,0.73
2023-03-31T12:53:47.758Z,0.90
2023-03-31T12:56:17.709Z,1.23
2023-03-31T12:58:49.138Z,0.80
2023-03-31T13:01:23.095Z,1.02
2023-03-31T13:03:57.896Z,0.85
2023-03-31T13:06:56.363Z,0.90
2023-03-31T13:09:42.511Z,0.88
2023-03-31T13:12:17.960Z,1.95
2023-03-31T13:14:51.833Z,0.90
2023-03-31T13:17:31.558Z,0.70
2023-03-31T13:20:26.650Z,0.75
2023-03-31T13:23:04.123Z,0.70
2023-03-31T13:25:52.584Z,0.65
2023-03-31T13:28:34.409Z,0.50
2023-03-31T13:31:05.528Z,1.10
2023-03-31T13:33:47.187Z,0.95
2023-03-31T13:36:53.041Z,0.80
2023-03-31T13:39:53.068Z,0.75
2023-03-31T13:42:39.373Z,0.65
2023-03-31T13:45:26.806Z,0.52
2023-03-31T13:48:06.545Z,0.60
2023-03-31T13:50:48.690Z,0.40
2023-03-31T13:53:35.252Z,0.40
2023-03-31T13:56:19.318Z,0.45
2023-03-31T13:59:16.327Z,0.50
2023-03-31T14:02:15.179Z,0.50
2023-03-31T14:05:19.442Z,0.40
2023-03-31T14:07:57.236Z,0.40
2023-03-31T14:10:30.757Z,0.45
2023-03-31T14:13:15.306Z,0.30
2023-03-31T14:15:51.888Z,0.57
2023-03-31T14:18:26.483Z,0.47
2023-03-31T14:21:14.136Z,0.50
2023-03-31T14:23:58.767Z,0.88
2023-03-31T14:26:50.198Z,0.40
2023-03-31T14:29:26.738Z,0.77
2023-03-31T14:32:05.338Z,0.82
2023-03-31T14:34:52.596Z,0.50
2023-03-31T14:37:23.872Z,1.00
2023-03-31T14:39:58.411Z,0.70
2023-03-31T14:42:30.727Z,0.60
2023-03-31T14:45:05.112Z,0.20
2023-03-31T14:50:09.186Z,0.30
2023-03-31T14:55:17.273Z,0.45
2023-03-31T14:57:48.973Z,0.47
2023-03-31T15:00:23.345Z,0.60
2023-03-31T15:02:53.325Z,0.32
2023-03-31T15:05:31.038Z,0.80
2023-03-31T15:08:01.693Z,0.60
2023-03-31T15:10:40.139Z,0.40
2023-03-31T15:13:14.954Z,0.50
2023-03-31T15:15:46.297Z,0.68
2023-03-31T15:18:18.010Z,0.40
2023-03-31T15:20:48.869Z,0.50
2023-03-31T15:23:25.055Z,0.35
2023-03-31T15:26:02.051Z,0.63
2023-03-31T15:28:36.569Z,0.47
2023-03-31T15:33:42.809Z,0.50
2023-03-31T15:36:14.742Z,0.65
2023-03-31T15:38:45.555Z,0.80
2023-03-31T15:41:21.373Z,0.68
2023-03-31T15:43:53.459Z,0.77
2023-03-31T15:46:28.547Z,0.40
2023-03-31T15:48:59.255Z,0.50
2023-03-31T15:51:33.829Z,0.70
2023-03-31T15:54:03.806Z,0.60
2023-03-31T15:56:40.611Z,0.90
2023-03-31T15:59:27.639Z,1.05
2023-03-31T16:02:05.955Z,1.17
2023-03-31T16:04:37.296Z,0.65
2023-03-31T16:07:09.905Z,0.70
2023-03-31T16:09:46.530Z,0.68
2023-03-31T16:12:23.781Z,0.95
2023-03-31T16:14:58.343Z,0.90
2023-03-31T16:17:33.866Z,0.73
2023-03-31T16:20:08.942Z,1.00
2023-03-31T16:22:43.103Z,1.15
2023-03-31T16:25:15.811Z,0.80
2023-03-31T16:27:51.214Z,0.80
2023-03-31T16:30:24.633Z,1.17
2023-03-31T16:33:02.807Z,0.90
2023-03-31T16:35:35.057Z,0.80
2023-03-31T16:38:05.160Z,0.50
2023-03-31T16:40:40.672Z,0.90
2023-03-31T16:43:17.875Z,0.82
2023-03-31T16:45:50.010Z,0.50
2023-03-31T16:48:21.043Z,0.45
2023-03-31T16:50:53.064Z,0.50
2023-03-31T16:53:25.128Z,0.32
2023-03-31T16:55:55.678Z,0.70
2023-03-31T16:58:29.669Z,0.50
2023-03-31T17:01:00.374Z,0.73
2023-03-31T17:03:32.557Z,0.40
2023-03-31T17:06:08.587Z,0.60
2023-03-31T17:08:39.829Z,0.60
2023-03-31T17:11:12.769Z,0.52
2023-03-31T17:13:46.609Z,0.70
2023-03-31T17:16:24.214Z,0.70
2023-03-31T17:18:59.171Z,0.90
2023-03-31T17:21:29.055Z,0.90
2023-03-31T17:24:01.538Z,3.95
2023-03-31T17:26:32.586Z,0.75
2023-03-31T17:29:05.122Z,0.95
2023-03-31T17:31:35.193Z,0.50
2023-03-31T17:34:05.133Z,0.60
2023-03-31T17:36:35.053Z,0.52
2023-03-31T17:39:05.139Z,0.63
2023-03-31T17:41:35.049Z,0.50
2023-03-31T17:44:08.854Z,0.50
2023-03-31T17:46:38.934Z,0.50
2023-03-31T17:49:08.844Z,0.50
2023-03-31T17:51:38.712Z,0.65
2023-03-31T17:54:08.906Z,0.50
2023-03-31T17:56:38.779Z,0.70
2023-03-31T17:59:11.421Z,0.70
2023-03-31T18:01:41.664Z,0.93
2023-03-31T18:04:11.860Z,1.35
2023-03-31T18:06:41.934Z,1.20
2023-03-31T18:09:11.858Z,0.50
2023-03-31T18:11:41.791Z,0.50
2023-03-31T18:14:14.576Z,0.57
2023-03-31T18:16:44.483Z,0.70
2023-03-31T18:19:14.353Z,0.75
2023-03-31T18:21:44.255Z,0.77
2023-03-31T18:24:14.140Z,0.70
2023-03-31T18:26:43.984Z,0.77
2023-03-31T18:29:16.554Z,0.80
2023-03-31T18:31:46.622Z,1.10
2023-03-31T18:34:16.762Z,0.95
2023-03-31T18:36:46.738Z,0.70
2023-03-31T18:39:16.805Z,1.02
2023-03-31T18:41:50.365Z,1.05
2023-03-31T18:44:22.789Z,1.03
2023-03-31T18:46:52.750Z,1.20
2023-03-31T18:49:22.903Z,0.80
2023-03-31T18:51:53.807Z,0.57
2023-03-31T18:54:23.678Z,0.80
2023-03-31T18:56:53.550Z,0.70
2023-03-31T18:59:26.025Z,0.80
2023-03-31T19:01:56.268Z,1.20
2023-03-31T19:04:27.136Z,0.90
2023-03-31T19:06:57.102Z,1.02
2023-03-31T19:09:28.084Z,1.10
2023-03-31T19:11:58.384Z,1.48
2023-03-31T19:14:30.944Z,1.10
2023-03-31T19:17:00.863Z,0.85
2023-03-31T19:19:31.031Z,0.93
2023-03-31T19:22:01.340Z,1.20
2023-03-31T19:24:31.410Z,1.00
2023-03-31T19:27:01.362Z,1.20
2023-03-31T19:29:35.378Z,1.17
2023-03-31T19:32:06.287Z,1.50
2023-03-31T19:34:36.553Z,1.50
2023-03-31T19:37:06.777Z,1.10
2023-03-31T19:39:37.624Z,1.10
2023-03-31T19:42:07.663Z,1.08
2023-03-31T19:44:40.616Z,1.05
2023-03-31T19:47:11.316Z,1.30
2023-03-31T19:49:41.810Z,1.40
2023-03-31T19:52:11.695Z,1.15
2023-03-31T19:54:42.291Z,1.23
2023-03-31T19:57:12.271Z,1.33
2023-03-31T19:59:44.945Z,1.08
2023-03-31T20:02:16.032Z,1.13
2023-03-31T20:04:46.411Z,0.90
2023-03-31T20:07:16.484Z,1.27
2023-03-31T20:09:46.553Z,0.98
2023-03-31T20:12:16.771Z,1.83
2023-03-31T20:14:49.366Z,0.98
2023-03-31T20:17:19.529Z,0.90
2023-03-31T20:19:49.861Z,1.00
2023-03-31T20:22:19.684Z,1.23
2023-03-31T20:24:49.638Z,1.17
2023-03-31T20:27:20.153Z,1.23
2023-03-31T20:29:52.556Z,0.98
2023-03-31T20:32:22.403Z,1.00
2023-03-31T20:34:52.874Z,1.05
2023-03-31T20:37:22.797Z,1.10
2023-03-31T20:39:54.150Z,1.13
2023-03-31T20:42:24.571Z,1.17
2023-03-31T20:44:57.026Z,1.20
2023-03-31T20:47:28.316Z,1.20
2023-03-31T20:49:58.179Z,1.38
2023-03-31T20:52:28.134Z,1.08
2023-03-31T20:54:58.017Z,1.05
2023-03-31T20:57:27.909Z,1.00
2023-03-31T21:00:02.143Z,0.80
2023-03-31T21:02:32.265Z,1.00
2023-03-31T21:05:02.236Z,1.30
2023-03-31T21:07:32.629Z,1.20
2023-03-31T21:10:02.746Z,1.00
2023-03-31T21:12:33.128Z,1.13
2023-03-31T21:15:05.769Z,1.10
2023-03-31T21:17:35.856Z,1.00
2023-03-31T21:20:06.317Z,0.80
2023-03-31T21:22:36.216Z,1.30
2023-03-31T21:25:06.182Z,0.90
2023-03-31T21:27:36.185Z,1.30
2023-03-31T21:30:10.473Z,1.83
2023-03-31T21:32:40.391Z,0.90
2023-03-31T21:35:11.286Z,1.17
2023-03-31T21:37:41.213Z,1.13
2023-03-31T21:40:14.440Z,1.10
2023-03-31T21:42:44.417Z,1.10
2023-03-31T21:45:17.310Z,0.98
2023-03-31T21:47:47.289Z,0.85
2023-03-31T21:50:17.398Z,1.10
2023-03-31T21:52:47.501Z,1.10
2023-03-31T21:55:17.505Z,0.80
2023-03-31T21:57:47.332Z,1.10
2023-03-31T22:00:20.293Z,0.80
2023-03-31T22:02:50.169Z,0.88
2023-03-31T22:05:20.317Z,1.00
2023-03-31T22:07:50.790Z,1.35
2023-03-31T22:10:21.027Z,1.05
2023-03-31T22:12:50.966Z,0.82
2023-03-31T22:15:23.427Z,1.30
2023-03-31T22:17:53.438Z,1.23
2023-03-31T22:20:23.449Z,1.30
2023-03-31T22:22:53.327Z,0.88
2023-03-31T22:25:23.194Z,0.88
2023-03-31T22:27:53.069Z,0.63
2023-03-31T22:30:26.056Z,0.60
2023-03-31T22:32:56.217Z,1.25
2023-03-31T22:35:26.667Z,0.60
2023-03-31T22:37:56.611Z,0.60
2023-03-31T22:40:29.242Z,0.50
2023-03-31T22:43:01.056Z,0.65
2023-03-31T22:45:33.756Z,0.85
2023-03-31T22:48:03.903Z,0.60
2023-03-31T22:50:33.890Z,0.38
2023-03-31T22:53:03.831Z,0.55
2023-03-31T22:55:33.980Z,0.60
2023-03-31T22:58:04.051Z,0.75
2023-03-31T23:00:36.538Z,0.63
2023-03-31T23:03:06.757Z,0.70
2023-03-31T23:05:37.789Z,0.57
2023-03-31T23:08:07.884Z,0.60
2023-03-31T23:10:37.749Z,0.57
2023-03-31T23:13:07.663Z,0.60
2023-03-31T23:15:41.142Z,0.60
2023-03-31T23:18:11.066Z,0.63
2023-03-31T23:20:42.520Z,0.73
2023-03-31T23:23:12.392Z,0.50
2023-03-31T23:25:42.287Z,0.60
2023-03-31T23:28:12.122Z,0.50
2023-03-31T23:30:44.506Z,0.80
2023-03-31T23:33:14.352Z,0.38
2023-03-31T23:35:44.337Z,0.50
2023-03-31T23:38:14.305Z,0.57
2023-03-31T23:40:46.366Z,0.40
2023-03-31T23:43:17.022Z,0.50
2023-03-31T23:45:49.530Z,0.50
2023-03-31T23:48:19.401Z,0.60
2023-03-31T23:50:49.249Z,0.50
2023-03-31T23:53:19.271Z,0.70
2023-03-31T23:55:56.645Z,0.40
2023-03-31T23:58:27.219Z,0.68
